sensor_id;sensor_type;location;lat;lon;timestamp;P1;durP1;ratioP1;P2;durP2;ratioP2
76379;SDS011;65201;21.060;105.826;2023-02-01T00:01:05;51.38;;;33.75;;
76379;SDS011;65201;21.060;105.826;2023-02-01T00:03:31;53.38;;;33.08;;
76379;SDS011;65201;21.060;105.826;2023-02-01T00:05:57;49.33;;;33.17;;
76379;SDS011;65201;21.060;105.826;2023-02-01T00:08:23;50.63;;;32.97;;
76379;SDS011;65201;21.060;105.826;2023-02-01T00:10:57;56.13;;;34.30;;
76379;SDS011;65201;21.060;105.826;2023-02-01T00:13:23;54.13;;;33.42;;
76379;SDS011;65201;21.060;105.826;2023-02-01T00:15:49;53.83;;;33.85;;
76379;SDS011;65201;21.060;105.826;2023-02-01T00:18:15;53.08;;;34.05;;
76379;SDS011;65201;21.060;105.826;2023-02-01T00:20:45;51.30;;;33.72;;
76379;SDS011;65201;21.060;105.826;2023-02-01T00:23:11;58.53;;;35.10;;
76379;SDS011;65201;21.060;105.826;2023-02-01T00:25:37;54.53;;;34.20;;
76379;SDS011;65201;21.060;105.826;2023-02-01T00:28:05;56.55;;;35.22;;
76379;SDS011;65201;21.060;105.826;2023-02-01T00:30:31;57.35;;;35.08;;
76379;SDS011;65201;21.060;105.826;2023-02-01T00:32:57;53.47;;;35.05;;
76379;SDS011;65201;21.060;105.826;2023-02-01T00:35:23;57.30;;;34.37;;
76379;SDS011;65201;21.060;105.826;2023-02-01T00:37:49;57.17;;;35.50;;
76379;SDS011;65201;21.060;105.826;2023-02-01T00:40:15;54.92;;;35.25;;
76379;SDS011;65201;21.060;105.826;2023-02-01T00:42:41;58.75;;;35.13;;
76379;SDS011;65201;21.060;105.826;2023-02-01T00:45:08;51.47;;;34.83;;
76379;SDS011;65201;21.060;105.826;2023-02-01T00:47:34;57.03;;;34.83;;
76379;SDS011;65201;21.060;105.826;2023-02-01T00:50:00;56.00;;;34.60;;
76379;SDS011;65201;21.060;105.826;2023-02-01T00:52:26;52.88;;;34.90;;
76379;SDS011;65201;21.060;105.826;2023-02-01T00:54:52;56.33;;;35.80;;
76379;SDS011;65201;21.060;105.826;2023-02-01T00:57:18;56.10;;;34.67;;
76379;SDS011;65201;21.060;105.826;2023-02-01T00:59:44;53.30;;;35.43;;
76379;SDS011;65201;21.060;105.826;2023-02-01T01:02:10;52.83;;;35.65;;
76379;SDS011;65201;21.060;105.826;2023-02-01T01:04:40;57.40;;;36.05;;
76379;SDS011;65201;21.060;105.826;2023-02-01T01:07:06;57.47;;;36.00;;
76379;SDS011;65201;21.060;105.826;2023-02-01T01:09:32;56.42;;;35.35;;
76379;SDS011;65201;21.060;105.826;2023-02-01T01:11:58;53.40;;;33.97;;
76379;SDS011;65201;21.060;105.826;2023-02-01T01:14:30;54.90;;;35.70;;
76379;SDS011;65201;21.060;105.826;2023-02-01T01:16:57;57.08;;;35.65;;
76379;SDS011;65201;21.060;105.826;2023-02-01T01:19:23;58.63;;;35.40;;
76379;SDS011;65201;21.060;105.826;2023-02-01T01:21:49;61.38;;;37.10;;
76379;SDS011;65201;21.060;105.826;2023-02-01T01:24:15;55.97;;;37.37;;
76379;SDS011;65201;21.060;105.826;2023-02-01T01:26:41;55.88;;;36.42;;
76379;SDS011;65201;21.060;105.826;2023-02-01T01:29:08;52.13;;;36.25;;
76379;SDS011;65201;21.060;105.826;2023-02-01T01:31:35;54.83;;;36.58;;
76379;SDS011;65201;21.060;105.826;2023-02-01T01:34:01;57.90;;;36.42;;
76379;SDS011;65201;21.060;105.826;2023-02-01T01:36:27;55.70;;;36.57;;
76379;SDS011;65201;21.060;105.826;2023-02-01T01:38:54;56.88;;;36.55;;
76379;SDS011;65201;21.060;105.826;2023-02-01T01:41:29;55.78;;;36.22;;
76379;SDS011;65201;21.060;105.826;2023-02-01T01:44:00;59.80;;;37.15;;
76379;SDS011;65201;21.060;105.826;2023-02-01T01:46:27;55.13;;;37.30;;
76379;SDS011;65201;21.060;105.826;2023-02-01T01:51:29;56.70;;;36.75;;
76379;SDS011;65201;21.060;105.826;2023-02-01T01:54:07;62.55;;;38.33;;
76379;SDS011;65201;21.060;105.826;2023-02-01T01:56:37;59.70;;;38.58;;
76379;SDS011;65201;21.060;105.826;2023-02-01T01:59:03;56.78;;;38.15;;
76379;SDS011;65201;21.060;105.826;2023-02-01T02:01:30;58.80;;;37.67;;
76379;SDS011;65201;21.060;105.826;2023-02-01T02:03:57;59.92;;;37.15;;
76379;SDS011;65201;21.060;105.826;2023-02-01T02:06:27;55.17;;;37.60;;
76379;SDS011;65201;21.060;105.826;2023-02-01T02:08:56;59.90;;;38.53;;
76379;SDS011;65201;21.060;105.826;2023-02-01T02:11:22;61.05;;;38.58;;
76379;SDS011;65201;21.060;105.826;2023-02-01T02:13:49;57.53;;;37.93;;
76379;SDS011;65201;21.060;105.826;2023-02-01T02:18:49;61.72;;;38.72;;
76379;SDS011;65201;21.060;105.826;2023-02-01T02:21:25;57.00;;;36.70;;
76379;SDS011;65201;21.060;105.826;2023-02-01T02:26:46;58.27;;;38.27;;
76379;SDS011;65201;21.060;105.826;2023-02-01T02:42:18;59.72;;;38.00;;
76379;SDS011;65201;21.060;105.826;2023-02-01T02:48:30;61.50;;;38.25;;
76379;SDS011;65201;21.060;105.826;2023-02-01T02:50:38;54.83;;;38.17;;
76379;SDS011;65201;21.060;105.826;2023-02-01T02:53:32;55.27;;;37.77;;
76379;SDS011;65201;21.060;105.826;2023-02-01T02:56:18;59.75;;;38.90;;
76379;SDS011;65201;21.060;105.826;2023-02-01T02:59:04;54.80;;;37.45;;
76379;SDS011;65201;21.060;105.826;2023-02-01T03:01:49;57.15;;;37.88;;
76379;SDS011;65201;21.060;105.826;2023-02-01T03:04:33;58.42;;;37.78;;
76379;SDS011;65201;21.060;105.826;2023-02-01T03:07:13;56.73;;;37.13;;
76379;SDS011;65201;21.060;105.826;2023-02-01T03:09:43;55.35;;;38.22;;
76379;SDS011;65201;21.060;105.826;2023-02-01T03:12:11;57.17;;;38.38;;
76379;SDS011;65201;21.060;105.826;2023-02-01T03:14:59;57.55;;;37.55;;
76379;SDS011;65201;21.060;105.826;2023-02-01T03:17:28;58.30;;;38.63;;
76379;SDS011;65201;21.060;105.826;2023-02-01T03:19:56;57.40;;;38.60;;
76379;SDS011;65201;21.060;105.826;2023-02-01T03:22:26;58.05;;;38.72;;
76379;SDS011;65201;21.060;105.826;2023-02-01T03:25:00;58.63;;;37.83;;
76379;SDS011;65201;21.060;105.826;2023-02-01T03:30:03;55.45;;;36.70;;
76379;SDS011;65201;21.060;105.826;2023-02-01T03:32:31;54.90;;;37.13;;
76379;SDS011;65201;21.060;105.826;2023-02-01T03:35:17;57.15;;;37.40;;
76379;SDS011;65201;21.060;105.826;2023-02-01T03:37:43;55.13;;;37.50;;
76379;SDS011;65201;21.060;105.826;2023-02-01T03:43:14;56.28;;;37.22;;
76379;SDS011;65201;21.060;105.826;2023-02-01T03:45:45;57.80;;;37.70;;
76379;SDS011;65201;21.060;105.826;2023-02-01T03:48:12;55.78;;;37.00;;
76379;SDS011;65201;21.060;105.826;2023-02-01T04:12:00;57.55;;;37.13;;
76379;SDS011;65201;21.060;105.826;2023-02-01T04:14:38;56.80;;;37.40;;
76379;SDS011;65201;21.060;105.826;2023-02-01T04:17:45;58.22;;;38.38;;
76379;SDS011;65201;21.060;105.826;2023-02-01T04:20:37;59.03;;;37.80;;
76379;SDS011;65201;21.060;105.826;2023-02-01T04:23:15;55.85;;;38.13;;
76379;SDS011;65201;21.060;105.826;2023-02-01T04:26:11;57.28;;;37.55;;
76379;SDS011;65201;21.060;105.826;2023-02-01T04:28:42;58.97;;;38.10;;
76379;SDS011;65201;21.060;105.826;2023-02-01T04:31:08;56.30;;;37.30;;
76379;SDS011;65201;21.060;105.826;2023-02-01T04:33:34;58.42;;;37.95;;
76379;SDS011;65201;21.060;105.826;2023-02-01T04:36:00;57.10;;;38.05;;
76379;SDS011;65201;21.060;105.826;2023-02-01T04:38:26;57.72;;;38.30;;
76379;SDS011;65201;21.060;105.826;2023-02-01T04:40:54;57.70;;;38.13;;
76379;SDS011;65201;21.060;105.826;2023-02-01T04:43:20;58.28;;;37.85;;
76379;SDS011;65201;21.060;105.826;2023-02-01T04:45:47;57.10;;;37.47;;
76379;SDS011;65201;21.060;105.826;2023-02-01T04:48:14;58.47;;;38.92;;
76379;SDS011;65201;21.060;105.826;2023-02-01T04:50:40;53.08;;;37.35;;
76379;SDS011;65201;21.060;105.826;2023-02-01T04:53:06;51.83;;;36.20;;
76379;SDS011;65201;21.060;105.826;2023-02-01T04:55:32;59.28;;;37.78;;
76379;SDS011;65201;21.060;105.826;2023-02-01T04:57:58;56.65;;;38.38;;
76379;SDS011;65201;21.060;105.826;2023-02-01T05:00:24;55.45;;;36.80;;
76379;SDS011;65201;21.060;105.826;2023-02-01T05:02:50;57.07;;;36.13;;
76379;SDS011;65201;21.060;105.826;2023-02-01T05:05:20;55.42;;;35.83;;
76379;SDS011;65201;21.060;105.826;2023-02-01T05:07:46;52.30;;;36.10;;
76379;SDS011;65201;21.060;105.826;2023-02-01T05:10:12;53.22;;;36.63;;
76379;SDS011;65201;21.060;105.826;2023-02-01T05:12:38;56.55;;;37.28;;
76379;SDS011;65201;21.060;105.826;2023-02-01T05:15:22;55.63;;;36.17;;
76379;SDS011;65201;21.060;105.826;2023-02-01T05:17:48;54.03;;;35.65;;
76379;SDS011;65201;21.060;105.826;2023-02-01T05:20:14;53.45;;;36.78;;
76379;SDS011;65201;21.060;105.826;2023-02-01T05:22:41;54.75;;;34.92;;
76379;SDS011;65201;21.060;105.826;2023-02-01T05:25:07;55.05;;;36.17;;
76379;SDS011;65201;21.060;105.826;2023-02-01T05:27:34;52.90;;;35.87;;
76379;SDS011;65201;21.060;105.826;2023-02-01T05:30:00;51.70;;;35.92;;
76379;SDS011;65201;21.060;105.826;2023-02-01T05:32:26;52.70;;;37.10;;
76379;SDS011;65201;21.060;105.826;2023-02-01T05:34:52;56.53;;;36.15;;
76379;SDS011;65201;21.060;105.826;2023-02-01T05:37:18;53.40;;;35.50;;
76379;SDS011;65201;21.060;105.826;2023-02-01T05:39:45;58.07;;;37.50;;
76379;SDS011;65201;21.060;105.826;2023-02-01T05:42:12;51.75;;;35.30;;
76379;SDS011;65201;21.060;105.826;2023-02-01T05:44:38;55.85;;;35.88;;
76379;SDS011;65201;21.060;105.826;2023-02-01T05:47:04;56.60;;;37.15;;
76379;SDS011;65201;21.060;105.826;2023-02-01T05:49:31;51.75;;;34.60;;
76379;SDS011;65201;21.060;105.826;2023-02-01T05:51:57;54.80;;;35.47;;
76379;SDS011;65201;21.060;105.826;2023-02-01T05:54:23;52.83;;;35.75;;
76379;SDS011;65201;21.060;105.826;2023-02-01T05:56:49;52.00;;;35.42;;
76379;SDS011;65201;21.060;105.826;2023-02-01T05:59:16;50.38;;;34.85;;
76379;SDS011;65201;21.060;105.826;2023-02-01T06:01:42;54.92;;;36.35;;
76379;SDS011;65201;21.060;105.826;2023-02-01T06:04:08;52.60;;;34.73;;
76379;SDS011;65201;21.060;105.826;2023-02-01T06:06:34;49.53;;;35.33;;
76379;SDS011;65201;21.060;105.826;2023-02-01T06:09:02;50.95;;;36.08;;
76379;SDS011;65201;21.060;105.826;2023-02-01T06:11:28;53.08;;;35.40;;
76379;SDS011;65201;21.060;105.826;2023-02-01T06:13:55;50.97;;;35.78;;
76379;SDS011;65201;21.060;105.826;2023-02-01T06:16:21;51.73;;;35.17;;
76379;SDS011;65201;21.060;105.826;2023-02-01T06:18:48;52.03;;;35.95;;
76379;SDS011;65201;21.060;105.826;2023-02-01T06:21:14;48.97;;;34.85;;
76379;SDS011;65201;21.060;105.826;2023-02-01T06:23:52;52.08;;;35.45;;
76379;SDS011;65201;21.060;105.826;2023-02-01T06:26:19;50.83;;;35.50;;
76379;SDS011;65201;21.060;105.826;2023-02-01T06:28:46;53.00;;;36.70;;
76379;SDS011;65201;21.060;105.826;2023-02-01T06:31:12;52.08;;;35.22;;
76379;SDS011;65201;21.060;105.826;2023-02-01T06:33:38;49.47;;;34.92;;
76379;SDS011;65201;21.060;105.826;2023-02-01T06:36:06;50.03;;;34.05;;
76379;SDS011;65201;21.060;105.826;2023-02-01T06:38:33;54.40;;;34.65;;
76379;SDS011;65201;21.060;105.826;2023-02-01T06:41:02;52.13;;;34.60;;
76379;SDS011;65201;21.060;105.826;2023-02-01T06:43:29;51.67;;;35.67;;
76379;SDS011;65201;21.060;105.826;2023-02-01T06:46:02;48.25;;;34.10;;
76379;SDS011;65201;21.060;105.826;2023-02-01T06:48:29;52.13;;;34.78;;
76379;SDS011;65201;21.060;105.826;2023-02-01T06:50:59;52.25;;;35.97;;
76379;SDS011;65201;21.060;105.826;2023-02-01T06:53:26;53.07;;;35.57;;
76379;SDS011;65201;21.060;105.826;2023-02-01T06:55:56;52.50;;;36.10;;
76379;SDS011;65201;21.060;105.826;2023-02-01T06:58:23;55.67;;;34.83;;
76379;SDS011;65201;21.060;105.826;2023-02-01T07:00:49;52.67;;;35.03;;
76379;SDS011;65201;21.060;105.826;2023-02-01T07:03:16;51.78;;;34.88;;
76379;SDS011;65201;21.060;105.826;2023-02-01T07:05:42;48.13;;;34.00;;
76379;SDS011;65201;21.060;105.826;2023-02-01T07:08:11;49.40;;;34.58;;
76379;SDS011;65201;21.060;105.826;2023-02-01T07:10:37;51.83;;;35.22;;
76379;SDS011;65201;21.060;105.826;2023-02-01T07:13:04;50.97;;;35.03;;
76379;SDS011;65201;21.060;105.826;2023-02-01T07:15:30;51.40;;;35.30;;
76379;SDS011;65201;21.060;105.826;2023-02-01T07:17:59;52.77;;;35.70;;
76379;SDS011;65201;21.060;105.826;2023-02-01T07:20:26;51.30;;;35.65;;
76379;SDS011;65201;21.060;105.826;2023-02-01T07:22:55;51.03;;;35.63;;
76379;SDS011;65201;21.060;105.826;2023-02-01T07:25:22;49.38;;;34.60;;
76379;SDS011;65201;21.060;105.826;2023-02-01T07:27:48;55.50;;;35.65;;
76379;SDS011;65201;21.060;105.826;2023-02-01T07:30:15;51.30;;;35.63;;
76379;SDS011;65201;21.060;105.826;2023-02-01T07:32:41;53.40;;;35.88;;
76379;SDS011;65201;21.060;105.826;2023-02-01T07:35:07;50.28;;;34.67;;
76379;SDS011;65201;21.060;105.826;2023-02-01T07:37:34;49.35;;;34.30;;
76379;SDS011;65201;21.060;105.826;2023-02-01T07:40:03;48.50;;;34.50;;
76379;SDS011;65201;21.060;105.826;2023-02-01T07:42:30;49.90;;;34.80;;
76379;SDS011;65201;21.060;105.826;2023-02-01T07:44:56;53.55;;;34.70;;
76379;SDS011;65201;21.060;105.826;2023-02-01T07:47:26;48.28;;;34.67;;
76379;SDS011;65201;21.060;105.826;2023-02-01T07:49:58;48.05;;;34.35;;
76379;SDS011;65201;21.060;105.826;2023-02-01T07:52:27;50.88;;;35.58;;
76379;SDS011;65201;21.060;105.826;2023-02-01T07:54:53;51.97;;;34.27;;
76379;SDS011;65201;21.060;105.826;2023-02-01T07:57:19;50.90;;;34.83;;
76379;SDS011;65201;21.060;105.826;2023-02-01T07:59:45;54.15;;;36.00;;
76379;SDS011;65201;21.060;105.826;2023-02-01T08:02:30;51.35;;;36.15;;
76379;SDS011;65201;21.060;105.826;2023-02-01T08:04:57;54.75;;;36.78;;
76379;SDS011;65201;21.060;105.826;2023-02-01T08:07:23;50.83;;;35.67;;
76379;SDS011;65201;21.060;105.826;2023-02-01T08:09:50;46.50;;;34.25;;
76379;SDS011;65201;21.060;105.826;2023-02-01T08:12:16;51.58;;;34.42;;
76379;SDS011;65201;21.060;105.826;2023-02-01T08:14:43;51.70;;;35.47;;
76379;SDS011;65201;21.060;105.826;2023-02-01T08:17:09;50.47;;;33.92;;
76379;SDS011;65201;21.060;105.826;2023-02-01T08:19:36;51.37;;;35.97;;
76379;SDS011;65201;21.060;105.826;2023-02-01T08:22:05;52.15;;;34.83;;
76379;SDS011;65201;21.060;105.826;2023-02-01T08:24:35;59.22;;;36.67;;
76379;SDS011;65201;21.060;105.826;2023-02-01T08:27:04;56.13;;;36.22;;
76379;SDS011;65201;21.060;105.826;2023-02-01T08:29:31;62.75;;;38.03;;
76379;SDS011;65201;21.060;105.826;2023-02-01T08:31:57;67.93;;;40.40;;
76379;SDS011;65201;21.060;105.826;2023-02-01T08:34:23;66.50;;;39.10;;
76379;SDS011;65201;21.060;105.826;2023-02-01T08:36:49;65.60;;;40.05;;
76379;SDS011;65201;21.060;105.826;2023-02-01T08:39:17;65.57;;;40.72;;
76379;SDS011;65201;21.060;105.826;2023-02-01T08:41:43;73.38;;;43.00;;
76379;SDS011;65201;21.060;105.826;2023-02-01T08:44:29;79.47;;;44.90;;
76379;SDS011;65201;21.060;105.826;2023-02-01T08:46:55;70.90;;;43.35;;
76379;SDS011;65201;21.060;105.826;2023-02-01T08:49:22;71.57;;;40.88;;
76379;SDS011;65201;21.060;105.826;2023-02-01T08:51:48;66.85;;;42.60;;
76379;SDS011;65201;21.060;105.826;2023-02-01T08:54:14;70.22;;;42.53;;
76379;SDS011;65201;21.060;105.826;2023-02-01T08:56:40;67.27;;;42.07;;
76379;SDS011;65201;21.060;105.826;2023-02-01T08:59:06;67.85;;;40.45;;
76379;SDS011;65201;21.060;105.826;2023-02-01T09:01:33;68.85;;;41.35;;
76379;SDS011;65201;21.060;105.826;2023-02-01T09:03:59;71.82;;;42.30;;
76379;SDS011;65201;21.060;105.826;2023-02-01T09:06:25;70.78;;;42.97;;
76379;SDS011;65201;21.060;105.826;2023-02-01T09:08:52;73.23;;;42.00;;
76379;SDS011;65201;21.060;105.826;2023-02-01T09:11:18;67.00;;;41.22;;
76379;SDS011;65201;21.060;105.826;2023-02-01T09:13:45;70.95;;;41.95;;
76379;SDS011;65201;21.060;105.826;2023-02-01T09:16:11;66.38;;;42.47;;
76379;SDS011;65201;21.060;105.826;2023-02-01T09:18:41;71.22;;;42.88;;
76379;SDS011;65201;21.060;105.826;2023-02-01T09:21:07;73.10;;;43.40;;
76379;SDS011;65201;21.060;105.826;2023-02-01T09:23:34;65.30;;;41.50;;
76379;SDS011;65201;21.060;105.826;2023-02-01T09:26:01;67.93;;;43.13;;
76379;SDS011;65201;21.060;105.826;2023-02-01T09:28:27;69.88;;;42.20;;
76379;SDS011;65201;21.060;105.826;2023-02-01T09:30:57;68.95;;;42.00;;
76379;SDS011;65201;21.060;105.826;2023-02-01T09:33:24;69.07;;;43.63;;
76379;SDS011;65201;21.060;105.826;2023-02-01T09:36:00;71.15;;;42.78;;
76379;SDS011;65201;21.060;105.826;2023-02-01T09:38:27;70.78;;;43.00;;
76379;SDS011;65201;21.060;105.826;2023-02-01T09:40:54;69.15;;;43.00;;
76379;SDS011;65201;21.060;105.826;2023-02-01T09:45:59;67.47;;;40.83;;
76379;SDS011;65201;21.060;105.826;2023-02-01T09:48:31;66.00;;;43.22;;
76379;SDS011;65201;21.060;105.826;2023-02-01T09:50:59;67.60;;;42.72;;
76379;SDS011;65201;21.060;105.826;2023-02-01T09:53:36;69.28;;;43.25;;
76379;SDS011;65201;21.060;105.826;2023-02-01T09:56:07;65.38;;;41.95;;
76379;SDS011;65201;21.060;105.826;2023-02-01T10:01:11;68.22;;;42.22;;
76379;SDS011;65201;21.060;105.826;2023-02-01T10:03:40;64.13;;;42.92;;
76379;SDS011;65201;21.060;105.826;2023-02-01T10:06:22;64.50;;;43.03;;
76379;SDS011;65201;21.060;105.826;2023-02-01T10:11:54;71.57;;;45.60;;
76379;SDS011;65201;21.060;105.826;2023-02-01T10:22:28;71.78;;;44.00;;
76379;SDS011;65201;21.060;105.826;2023-02-01T10:24:59;69.97;;;44.77;;
76379;SDS011;65201;21.060;105.826;2023-02-01T10:27:33;70.55;;;43.60;;
76379;SDS011;65201;21.060;105.826;2023-02-01T10:30:03;69.93;;;43.88;;
76379;SDS011;65201;21.060;105.826;2023-02-01T10:32:34;71.00;;;45.47;;
76379;SDS011;65201;21.060;105.826;2023-02-01T10:35:42;74.53;;;45.22;;
76379;SDS011;65201;21.060;105.826;2023-02-01T10:37:52;71.23;;;45.13;;
76379;SDS011;65201;21.060;105.826;2023-02-01T10:42:47;75.15;;;46.25;;
76379;SDS011;65201;21.060;105.826;2023-02-01T10:45:15;71.20;;;45.38;;
76379;SDS011;65201;21.060;105.826;2023-02-01T10:47:42;70.43;;;46.38;;
76379;SDS011;65201;21.060;105.826;2023-02-01T10:53:15;71.68;;;44.10;;
76379;SDS011;65201;21.060;105.826;2023-02-01T10:55:40;67.20;;;44.92;;
76379;SDS011;65201;21.060;105.826;2023-02-01T10:58:26;68.88;;;44.22;;
76379;SDS011;65201;21.060;105.826;2023-02-01T11:00:57;68.78;;;45.60;;
76379;SDS011;65201;21.060;105.826;2023-02-01T11:05:56;74.82;;;45.80;;
76379;SDS011;65201;21.060;105.826;2023-02-01T11:08:22;69.55;;;46.58;;
76379;SDS011;65201;21.060;105.826;2023-02-01T11:10:56;74.88;;;47.45;;
76379;SDS011;65201;21.060;105.826;2023-02-01T11:13:32;74.30;;;49.20;;
76379;SDS011;65201;21.060;105.826;2023-02-01T11:16:02;81.23;;;51.17;;
76379;SDS011;65201;21.060;105.826;2023-02-01T11:18:31;84.88;;;51.45;;
76379;SDS011;65201;21.060;105.826;2023-02-01T11:20:58;72.47;;;47.22;;
76379;SDS011;65201;21.060;105.826;2023-02-01T11:23:25;74.57;;;48.03;;
76379;SDS011;65201;21.060;105.826;2023-02-01T11:25:59;72.63;;;48.47;;
76379;SDS011;65201;21.060;105.826;2023-02-01T11:28:27;78.70;;;48.97;;
76379;SDS011;65201;21.060;105.826;2023-02-01T11:30:56;77.83;;;48.33;;
76379;SDS011;65201;21.060;105.826;2023-02-01T11:33:36;89.82;;;48.72;;
76379;SDS011;65201;21.060;105.826;2023-02-01T11:36:18;85.57;;;48.80;;
76379;SDS011;65201;21.060;105.826;2023-02-01T11:38:53;75.10;;;47.92;;
76379;SDS011;65201;21.060;105.826;2023-02-01T11:41:21;76.00;;;47.60;;
76379;SDS011;65201;21.060;105.826;2023-02-01T11:43:52;71.15;;;47.60;;
76379;SDS011;65201;21.060;105.826;2023-02-01T11:46:19;73.03;;;48.43;;
76379;SDS011;65201;21.060;105.826;2023-02-01T11:48:50;79.68;;;48.92;;
76379;SDS011;65201;21.060;105.826;2023-02-01T11:54:05;72.13;;;47.17;;
76379;SDS011;65201;21.060;105.826;2023-02-01T11:59:39;76.53;;;47.40;;
76379;SDS011;65201;21.060;105.826;2023-02-01T12:04:50;70.90;;;47.05;;
76379;SDS011;65201;21.060;105.826;2023-02-01T12:07:34;76.82;;;47.60;;
76379;SDS011;65201;21.060;105.826;2023-02-01T12:15:22;78.28;;;48.45;;
76379;SDS011;65201;21.060;105.826;2023-02-01T12:17:59;74.57;;;47.15;;
76379;SDS011;65201;21.060;105.826;2023-02-01T12:23:19;77.67;;;47.63;;
76379;SDS011;65201;21.060;105.826;2023-02-01T12:25:57;79.18;;;47.78;;
76379;SDS011;65201;21.060;105.826;2023-02-01T12:31:24;74.07;;;48.80;;
76379;SDS011;65201;21.060;105.826;2023-02-01T12:34:04;75.35;;;46.33;;
76379;SDS011;65201;21.060;105.826;2023-02-01T12:39:31;74.15;;;46.65;;
76379;SDS011;65201;21.060;105.826;2023-02-01T12:47:06;76.28;;;47.20;;
76379;SDS011;65201;21.060;105.826;2023-02-01T12:49:43;76.23;;;46.97;;
76379;SDS011;65201;21.060;105.826;2023-02-01T12:52:13;70.60;;;46.92;;
76379;SDS011;65201;21.060;105.826;2023-02-01T12:57:10;78.45;;;48.22;;
76379;SDS011;65201;21.060;105.826;2023-02-01T12:59:44;81.70;;;48.55;;
76379;SDS011;65201;21.060;105.826;2023-02-01T13:02:27;81.93;;;49.47;;
76379;SDS011;65201;21.060;105.826;2023-02-01T13:05:14;77.30;;;50.40;;
76379;SDS011;65201;21.060;105.826;2023-02-01T13:07:49;80.63;;;49.70;;
76379;SDS011;65201;21.060;105.826;2023-02-01T13:13:02;77.85;;;50.65;;
76379;SDS011;65201;21.060;105.826;2023-02-01T13:18:19;81.07;;;50.42;;
76379;SDS011;65201;21.060;105.826;2023-02-01T13:23:25;80.60;;;49.00;;
76379;SDS011;65201;21.060;105.826;2023-02-01T13:25:52;80.22;;;50.75;;
76379;SDS011;65201;21.060;105.826;2023-02-01T13:28:24;76.50;;;48.17;;
76379;SDS011;65201;21.060;105.826;2023-02-01T13:30:57;75.55;;;47.97;;
76379;SDS011;65201;21.060;105.826;2023-02-01T13:43:55;75.20;;;48.08;;
76379;SDS011;65201;21.060;105.826;2023-02-01T13:46:22;74.38;;;46.92;;
76379;SDS011;65201;21.060;105.826;2023-02-01T13:48:59;74.78;;;47.15;;
76379;SDS011;65201;21.060;105.826;2023-02-01T13:51:45;75.72;;;47.90;;
76379;SDS011;65201;21.060;105.826;2023-02-01T13:56:51;73.70;;;46.38;;
76379;SDS011;65201;21.060;105.826;2023-02-01T14:04:48;74.68;;;45.67;;
76379;SDS011;65201;21.060;105.826;2023-02-01T14:07:21;66.13;;;45.03;;
76379;SDS011;65201;21.060;105.826;2023-02-01T14:09:47;65.00;;;44.10;;
76379;SDS011;65201;21.060;105.826;2023-02-01T14:12:59;77.47;;;45.83;;
76379;SDS011;65201;21.060;105.826;2023-02-01T14:15:20;68.90;;;44.33;;
76379;SDS011;65201;21.060;105.826;2023-02-01T14:17:48;64.18;;;42.90;;
76379;SDS011;65201;21.060;105.826;2023-02-01T14:23:12;71.03;;;42.20;;
76379;SDS011;65201;21.060;105.826;2023-02-01T14:25:40;63.83;;;42.15;;
76379;SDS011;65201;21.060;105.826;2023-02-01T14:28:25;72.20;;;43.17;;
76379;SDS011;65201;21.060;105.826;2023-02-01T14:30:54;67.55;;;42.28;;
76379;SDS011;65201;21.060;105.826;2023-02-01T14:33:23;72.03;;;44.57;;
76379;SDS011;65201;21.060;105.826;2023-02-01T14:36:11;65.13;;;42.53;;
76379;SDS011;65201;21.060;105.826;2023-02-01T14:38:38;67.68;;;42.00;;
76379;SDS011;65201;21.060;105.826;2023-02-01T14:41:39;65.50;;;41.58;;
76379;SDS011;65201;21.060;105.826;2023-02-01T14:49:12;63.60;;;40.20;;
76379;SDS011;65201;21.060;105.826;2023-02-01T14:51:39;64.97;;;41.65;;
76379;SDS011;65201;21.060;105.826;2023-02-01T14:54:08;69.75;;;42.17;;
76379;SDS011;65201;21.060;105.826;2023-02-01T14:56:38;65.90;;;40.58;;
76379;SDS011;65201;21.060;105.826;2023-02-01T14:59:09;62.13;;;40.07;;
76379;SDS011;65201;21.060;105.826;2023-02-01T15:01:39;59.63;;;39.78;;
76379;SDS011;65201;21.060;105.826;2023-02-01T15:04:13;62.88;;;41.13;;
76379;SDS011;65201;21.060;105.826;2023-02-01T15:06:57;66.47;;;39.92;;
76379;SDS011;65201;21.060;105.826;2023-02-01T15:09:31;63.05;;;40.85;;
76379;SDS011;65201;21.060;105.826;2023-02-01T15:14:28;66.15;;;41.78;;
76379;SDS011;65201;21.060;105.826;2023-02-01T15:16:54;59.63;;;39.80;;
76379;SDS011;65201;21.060;105.826;2023-02-01T15:19:21;67.50;;;39.75;;
76379;SDS011;65201;21.060;105.826;2023-02-01T15:21:49;64.50;;;39.67;;
76379;SDS011;65201;21.060;105.826;2023-02-01T15:24:24;62.80;;;39.43;;
76379;SDS011;65201;21.060;105.826;2023-02-01T15:26:51;59.95;;;39.30;;
76379;SDS011;65201;21.060;105.826;2023-02-01T15:29:18;56.80;;;39.30;;
76379;SDS011;65201;21.060;105.826;2023-02-01T15:31:49;57.13;;;38.85;;
76379;SDS011;65201;21.060;105.826;2023-02-01T15:34:17;61.33;;;39.17;;
76379;SDS011;65201;21.060;105.826;2023-02-01T15:36:44;60.23;;;38.83;;
76379;SDS011;65201;21.060;105.826;2023-02-01T15:44:47;63.78;;;38.05;;
76379;SDS011;65201;21.060;105.826;2023-02-01T15:47:14;62.40;;;37.60;;
76379;SDS011;65201;21.060;105.826;2023-02-01T15:49:41;57.13;;;37.07;;
76379;SDS011;65201;21.060;105.826;2023-02-01T15:52:16;56.13;;;36.63;;
76379;SDS011;65201;21.060;105.826;2023-02-01T15:54:49;55.63;;;35.53;;
76379;SDS011;65201;21.060;105.826;2023-02-01T15:57:24;56.50;;;35.72;;
76379;SDS011;65201;21.060;105.826;2023-02-01T15:59:56;51.47;;;35.75;;
76379;SDS011;65201;21.060;105.826;2023-02-01T16:05:03;56.08;;;36.40;;
76379;SDS011;65201;21.060;105.826;2023-02-01T16:07:31;55.60;;;36.03;;
76379;SDS011;65201;21.060;105.826;2023-02-01T16:09:58;54.97;;;36.42;;
76379;SDS011;65201;21.060;105.826;2023-02-01T16:12:30;52.40;;;35.53;;
76379;SDS011;65201;21.060;105.826;2023-02-01T16:14:57;53.03;;;33.77;;
76379;SDS011;65201;21.060;105.826;2023-02-01T16:17:23;52.83;;;35.25;;
76379;SDS011;65201;21.060;105.826;2023-02-01T16:19:50;54.47;;;35.05;;
76379;SDS011;65201;21.060;105.826;2023-02-01T16:22:16;50.88;;;34.08;;
76379;SDS011;65201;21.060;105.826;2023-02-01T16:24:43;53.83;;;34.38;;
76379;SDS011;65201;21.060;105.826;2023-02-01T16:27:09;53.10;;;33.27;;
76379;SDS011;65201;21.060;105.826;2023-02-01T16:29:35;51.67;;;33.95;;
76379;SDS011;65201;21.060;105.826;2023-02-01T16:32:01;52.22;;;33.17;;
76379;SDS011;65201;21.060;105.826;2023-02-01T16:34:28;51.97;;;33.97;;
76379;SDS011;65201;21.060;105.826;2023-02-01T16:36:54;52.95;;;34.47;;
76379;SDS011;65201;21.060;105.826;2023-02-01T16:39:22;52.57;;;32.80;;
76379;SDS011;65201;21.060;105.826;2023-02-01T16:41:49;52.80;;;34.20;;